Time;durP1;ratioP1;P1;durP2;ratioP2;P2;SDS_P1;SDS_P2;PMS_P1;PMS_P2;Temp;Humidity;BMP_temperature;BMP_pressure;BME280_temperature;BME280_humidity;BME280_pressure;Samples;Min_cycle;Max_cycle;Signal;HPM_P1;HPM_P2
2023/12/20 00:00:58;;;;;;;15.80;12.43;;;11.20;65.40;;;;;;5098473;28;20271;-94
2023/12/20 00:03:24;;;;;;;16.67;12.30;;;11.20;66.10;;;;;;5094724;28;20548;-95
2023/12/20 00:05:50;;;;;;;14.63;11.80;;;11.10;65.20;;;;;;5076168;28;20212;-93
2023/12/20 00:08:16;;;;;;;15.97;13.07;;;11.10;65.30;;;;;;5077852;28;20177;-94
2023/12/20 00:10:43;;;;;;;13.83;12.23;;;11.10;65.30;;;;;;5077488;28;20221;-93
2023/12/20 00:13:08;;;;;;;17.70;12.67;;;11.10;65.30;;;;;;5077667;28;20183;-95
2023/12/20 00:15:34;;;;;;;13.23;11.20;;;11.10;65.40;;;;;;5077362;28;20541;-93
2023/12/20 00:18:00;;;;;;;17.60;11.60;;;11.10;65.50;;;;;;5077211;28;20184;-93
2023/12/20 00:20:27;;;;;;;13.40;11.63;;;11.20;65.60;;;;;;5085773;28;20636;-93
2023/12/20 00:22:54;;;;;;;13.37;11.50;;;11.20;65.40;;;;;;5095757;28;20215;-93
2023/12/20 00:25:20;;;;;;;15.43;11.27;;;11.10;65.40;;;;;;5078803;28;20173;-93
2023/12/20 00:27:45;;;;;;;13.37;11.77;;;11.20;65.60;;;;;;5097175;28;20185;-94
2023/12/20 00:30:11;;;;;;;12.60;11.13;;;11.10;65.20;;;;;;5097604;28;20621;-92
2023/12/20 00:32:37;;;;;;;13.83;10.80;;;11.10;65.50;;;;;;5097305;28;20188;-94
2023/12/20 00:35:02;;;;;;;13.07;10.23;;;11.10;65.70;;;;;;5093839;28;20180;-94
2023/12/20 00:37:28;;;;;;;13.73;11.00;;;11.10;65.70;;;;;;5093339;28;20192;-95
2023/12/20 00:39:54;;;;;;;14.30;11.70;;;11.20;65.80;;;;;;5109188;28;20186;-93
2023/12/20 00:42:19;;;;;;;12.40;11.07;;;11.10;65.50;;;;;;5093947;28;20179;-93
2023/12/20 00:44:45;;;;;;;13.13;11.07;;;11.20;65.80;;;;;;5079564;28;20180;-92
2023/12/20 00:47:10;;;;;;;13.70;10.93;;;11.20;65.70;;;;;;5095354;28;20187;-92
2023/12/20 00:49:36;;;;;;;11.83;10.63;;;11.20;65.80;;;;;;5096956;28;20175;-93
2023/12/20 00:52:01;;;;;;;12.37;10.73;;;11.20;65.70;;;;;;5077227;28;20165;-94
2023/12/20 00:54:28;;;;;;;12.40;10.47;;;11.30;65.80;;;;;;5077145;28;20192;-92
2023/12/20 00:56:53;;;;;;;12.63;10.67;;;11.20;65.70;;;;;;5083849;28;20255;-94
2023/12/20 00:59:19;;;;;;;11.97;10.27;;;11.20;65.70;;;;;;5097412;28;20215;-96
2023/12/20 01:01:45;;;;;;;11.77;10.40;;;11.20;65.90;;;;;;5095922;28;20175;-95
2023/12/20 01:04:10;;;;;;;13.03;10.63;;;11.20;65.80;;;;;;5093120;28;20177;-95
2023/12/20 01:06:36;;;;;;;11.63;10.27;;;11.20;65.70;;;;;;5093670;28;20183;-95
2023/12/20 01:09:02;;;;;;;12.60;10.00;;;11.30;65.70;;;;;;5095224;28;20208;-94
2023/12/20 01:11:28;;;;;;;12.00;10.67;;;11.30;65.70;;;;;;5094796;28;20253;-94
2023/12/20 01:13:53;;;;;;;10.90;9.80;;;11.20;65.40;;;;;;5093110;28;20209;-94
2023/12/20 01:16:19;;;;;;;11.07;9.57;;;11.20;65.50;;;;;;5095927;28;20206;-96
2023/12/20 01:18:45;;;;;;;12.43;11.10;;;11.20;65.60;;;;;;5094620;28;20215;-93
2023/12/20 01:21:10;;;;;;;13.33;10.53;;;11.20;65.70;;;;;;5095261;28;20183;-94
2023/12/20 01:23:36;;;;;;;11.40;10.27;;;11.30;66.40;;;;;;5096863;28;20529;-92
2023/12/20 01:26:02;;;;;;;11.13;9.93;;;11.20;65.60;;;;;;5094027;28;20176;-94
2023/12/20 01:28:28;;;;;;;10.83;9.53;;;11.20;65.90;;;;;;5095538;28;20171;-93
2023/12/20 01:30:53;;;;;;;11.37;9.90;;;11.10;65.90;;;;;;5096517;28;20245;-95
2023/12/20 01:33:19;;;;;;;11.63;9.33;;;11.10;65.60;;;;;;5092919;28;20168;-93
2023/12/20 01:35:45;;;;;;;10.93;9.83;;;11.10;65.90;;;;;;5080985;28;20172;-92
2023/12/20 01:38:10;;;;;;;11.70;9.67;;;11.20;66.10;;;;;;5094227;28;20322;-91
2023/12/20 01:40:36;;;;;;;11.73;9.40;;;11.20;66.00;;;;;;5076630;28;20168;-94
2023/12/20 01:43:09;;;;;;;11.27;9.53;;;11.10;66.10;;;;;;5091210;28;20179;-94
2023/12/20 01:45:35;;;;;;;12.37;10.33;;;11.20;65.90;;;;;;5096669;28;20186;-94
2023/12/20 01:48:02;;;;;;;11.70;9.93;;;11.20;65.80;;;;;;5095685;28;20180;-94
2023/12/20 01:50:30;;;;;;;10.27;9.17;;;11.20;65.90;;;;;;5096694;28;20171;-93
2023/12/20 01:52:58;;;;;;;11.07;9.80;;;11.20;66.00;;;;;;5095307;28;20199;-95
2023/12/20 01:55:24;;;;;;;10.20;9.00;;;11.10;65.70;;;;;;5096426;28;20182;-93
2023/12/20 01:57:51;;;;;;;10.23;8.57;;;11.10;65.80;;;;;;5095747;28;20238;-94
2023/12/20 02:00:18;;;;;;;11.67;9.47;;;11.10;65.90;;;;;;5083883;28;20185;-95
2023/12/20 02:02:45;;;;;;;10.97;9.30;;;11.30;66.10;;;;;;5076246;28;20252;-92
2023/12/20 02:05:11;;;;;;;10.53;9.40;;;11.20;66.00;;;;;;5075923;28;20653;-93
2023/12/20 02:07:36;;;;;;;10.93;9.63;;;11.20;65.90;;;;;;5075833;28;20180;-94
2023/12/20 02:10:04;;;;;;;12.23;9.63;;;11.10;65.90;;;;;;5092770;28;20198;-92
2023/12/20 02:12:29;;;;;;;12.20;9.73;;;11.20;65.90;;;;;;5089584;28;20280;-94
2023/12/20 02:14:55;;;;;;;12.13;9.57;;;11.20;66.00;;;;;;5092355;28;20626;-93
2023/12/20 02:17:23;;;;;;;11.63;10.43;;;11.20;66.00;;;;;;5076178;28;20246;-93
2023/12/20 02:19:49;;;;;;;11.33;10.13;;;11.10;65.90;;;;;;5091969;28;20214;-93
2023/12/20 02:22:15;;;;;;;11.20;9.70;;;11.10;65.80;;;;;;5096596;28;20260;-92
2023/12/20 02:24:41;;;;;;;10.37;9.27;;;11.00;65.90;;;;;;5096622;28;20223;-93
2023/12/20 02:27:07;;;;;;;10.90;8.90;;;11.00;66.20;;;;;;5079653;28;20190;-94
2023/12/20 02:29:34;;;;;;;9.03;8.10;;;11.00;66.10;;;;;;5079930;28;20176;-95
2023/12/20 02:32:00;;;;;;;8.80;7.70;;;11.10;66.40;;;;;;5080919;28;20187;-94
2023/12/20 02:34:25;;;;;;;7.70;6.90;;;11.00;66.00;;;;;;5100779;28;20172;-92
2023/12/20 02:36:51;;;;;;;9.27;7.70;;;11.00;66.10;;;;;;5110340;28;21327;-92
2023/12/20 02:39:17;;;;;;;9.03;7.57;;;11.00;66.20;;;;;;5107601;28;20518;-93
2023/12/20 02:41:42;;;;;;;8.43;7.53;;;11.10;66.30;;;;;;5099943;28;20172;-94
2023/12/20 02:44:08;;;;;;;9.00;7.50;;;11.00;66.30;;;;;;5099620;28;20201;-91
2023/12/20 02:46:33;;;;;;;9.63;8.27;;;10.90;66.50;;;;;;5096981;28;20696;-95
2023/12/20 02:48:59;;;;;;;8.53;7.17;;;11.00;66.80;;;;;;5099549;28;20198;-94
2023/12/20 02:51:25;;;;;;;8.77;7.27;;;11.00;66.70;;;;;;5099559;28;20544;-94
2023/12/20 02:53:50;;;;;;;6.93;6.23;;;11.10;66.70;;;;;;5099410;28;20213;-93
2023/12/20 02:56:16;;;;;;;8.13;7.27;;;11.10;66.50;;;;;;5096994;28;20203;-95
2023/12/20 02:58:41;;;;;;;7.63;6.83;;;11.00;66.30;;;;;;5078551;28;20177;-95
2023/12/20 03:01:07;;;;;;;8.27;6.90;;;11.10;66.60;;;;;;5093366;28;20215;-92
2023/12/20 03:03:33;;;;;;;7.97;7.23;;;11.00;66.40;;;;;;5078747;28;20620;-93
2023/12/20 03:06:00;;;;;;;8.33;7.37;;;10.90;66.10;;;;;;5083586;28;20692;-93
2023/12/20 03:08:25;;;;;;;6.93;6.30;;;10.90;66.60;;;;;;5078771;28;20184;-95
2023/12/20 03:10:51;;;;;;;6.97;6.27;;;10.90;66.60;;;;;;5078649;28;20226;-94
2023/12/20 03:13:17;;;;;;;8.23;6.83;;;10.90;66.40;;;;;;5097816;28;20179;-92
2023/12/20 03:15:42;;;;;;;7.57;6.77;;;10.90;66.60;;;;;;5099147;28;20191;-94
2023/12/20 03:18:08;;;;;;;7.13;6.30;;;10.90;66.80;;;;;;5099092;28;20172;-92
2023/12/20 03:20:34;;;;;;;7.17;6.33;;;10.90;67.00;;;;;;5098875;28;20832;-92
2023/12/20 03:23:03;;;;;;;7.17;6.47;;;10.90;66.90;;;;;;5098941;28;20175;-94
2023/12/20 03:25:29;;;;;;;7.17;6.17;;;11.00;66.80;;;;;;5099026;28;20172;-93
2023/12/20 03:27:54;;;;;;;7.87;6.93;;;10.90;66.40;;;;;;5098172;28;20651;-93
2023/12/20 03:30:20;;;;;;;7.90;7.10;;;10.90;66.60;;;;;;5098810;28;20205;-92
2023/12/20 03:32:46;;;;;;;8.53;6.97;;;10.90;66.50;;;;;;5095844;28;20177;-92
2023/12/20 03:35:12;;;;;;;8.73;7.03;;;10.90;66.80;;;;;;5098049;28;20649;-94
2023/12/20 03:37:38;;;;;;;7.63;6.73;;;10.90;66.70;;;;;;5098826;28;20207;-95
2023/12/20 03:40:04;;;;;;;7.30;6.57;;;10.90;66.70;;;;;;5098468;28;20266;-95
2023/12/20 03:42:29;;;;;;;6.77;6.17;;;10.90;66.90;;;;;;5098030;28;20250;-94
2023/12/20 03:44:55;;;;;;;7.57;6.73;;;10.90;66.70;;;;;;5098586;28;20192;-94
2023/12/20 03:47:21;;;;;;;8.33;6.20;;;10.90;66.90;;;;;;5096196;28;20175;-93
2023/12/20 03:49:46;;;;;;;8.17;6.03;;;10.90;67.00;;;;;;5078056;28;20183;-92
2023/12/20 03:52:12;;;;;;;6.57;5.97;;;10.90;67.00;;;;;;5077969;28;20249;-93
2023/12/20 03:54:38;;;;;;;7.00;6.30;;;10.90;66.50;;;;;;5084925;28;20198;-92
2023/12/20 03:57:04;;;;;;;6.77;5.93;;;10.90;66.60;;;;;;5094486;28;20204;-93
2023/12/20 03:59:30;;;;;;;7.10;6.40;;;10.90;67.10;;;;;;5077740;28;20192;-93
2023/12/20 04:01:55;;;;;;;7.83;7.07;;;10.90;66.90;;;;;;5092153;28;20645;-94
2023/12/20 04:04:21;;;;;;;6.90;6.20;;;10.90;67.00;;;;;;5098097;28;20182;-94
2023/12/20 04:06:47;;;;;;;7.73;6.63;;;11.00;67.30;;;;;;5085340;28;20184;-93
2023/12/20 04:09:12;;;;;;;7.37;6.67;;;10.90;66.90;;;;;;5082712;28;20184;-94
2023/12/20 04:11:38;;;;;;;8.83;7.07;;;11.00;67.30;;;;;;5077516;28;20220;-93
2023/12/20 04:14:07;;;;;;;7.27;6.57;;;11.00;67.30;;;;;;5078036;28;20177;-95
2023/12/20 04:16:32;;;;;;;7.43;6.70;;;11.10;67.40;;;;;;5078074;28;20226;-94
2023/12/20 04:18:58;;;;;;;7.13;6.53;;;11.10;67.30;;;;;;5092343;28;20164;-92
2023/12/20 04:21:24;;;;;;;6.80;6.20;;;11.10;67.00;;;;;;5097923;28;20182;-94
2023/12/20 04:23:50;;;;;;;8.40;7.10;;;11.10;66.90;;;;;;5097900;28;20527;-93
2023/12/20 04:26:15;;;;;;;7.67;6.97;;;11.10;66.80;;;;;;5097029;28;20180;-92
2023/12/20 04:28:41;;;;;;;7.50;6.70;;;11.10;67.00;;;;;;5077745;28;20172;-95
2023/12/20 04:31:07;;;;;;;8.27;7.17;;;11.10;66.90;;;;;;5077110;28;20168;-95
2023/12/20 04:33:33;;;;;;;8.10;7.30;;;11.10;66.80;;;;;;5087687;28;20171;-93
2023/12/20 04:35:59;;;;;;;7.20;6.50;;;11.10;66.50;;;;;;5093647;28;20166;-93
2023/12/20 04:38:25;;;;;;;8.40;6.17;;;11.10;66.50;;;;;;5077837;28;20168;-95
2023/12/20 04:40:51;;;;;;;10.97;6.60;;;11.00;66.60;;;;;;5097581;28;20176;-93
2023/12/20 04:43:17;;;;;;;10.53;6.53;;;11.00;66.80;;;;;;5096983;28;20167;-95
2023/12/20 04:45:42;;;;;;;7.63;6.77;;;11.00;66.70;;;;;;5085793;28;20176;-94
2023/12/20 04:48:08;;;;;;;8.17;7.30;;;10.90;66.70;;;;;;5079889;28;20558;-93
2023/12/20 04:50:33;;;;;;;7.30;6.60;;;10.90;66.90;;;;;;5079068;28;20201;-94
2023/12/20 04:53:00;;;;;;;7.97;7.07;;;10.90;67.00;;;;;;5097158;28;20172;-92
2023/12/20 04:55:26;;;;;;;7.90;7.20;;;10.90;67.00;;;;;;5096797;28;20177;-92
2023/12/20 04:57:51;;;;;;;7.83;7.10;;;11.00;67.20;;;;;;5095397;28;20230;-94
2023/12/20 05:00:17;;;;;;;7.57;6.87;;;11.00;67.10;;;;;;5084053;28;20534;-93
2023/12/20 05:02:43;;;;;;;7.93;7.23;;;11.00;67.20;;;;;;5093982;28;20172;-94
2023/12/20 05:05:09;;;;;;;7.97;7.23;;;11.00;67.10;;;;;;5076591;28;20230;-93
2023/12/20 05:07:35;;;;;;;8.17;7.47;;;11.10;67.40;;;;;;5076437;28;20192;-94
2023/12/20 05:10:00;;;;;;;7.87;7.17;;;11.10;67.40;;;;;;5076601;28;20178;-94
2023/12/20 05:12:26;;;;;;;8.47;7.63;;;11.10;67.10;;;;;;5076587;28;20216;-92
2023/12/20 05:14:54;;;;;;;9.47;8.47;;;11.10;66.90;;;;;;5076953;28;20168;-94
2023/12/20 05:17:20;;;;;;;8.87;8.07;;;11.10;67.00;;;;;;5076323;28;20212;-92
2023/12/20 05:19:46;;;;;;;8.90;8.00;;;11.10;66.90;;;;;;5106562;28;20284;-89
2023/12/20 05:22:11;;;;;;;8.53;7.73;;;11.10;67.00;;;;;;5096757;28;20193;-89
2023/12/20 05:24:37;;;;;;;8.17;7.47;;;11.00;67.00;;;;;;5094636;28;20267;-88
2023/12/20 05:27:03;;;;;;;8.47;7.67;;;11.00;67.20;;;;;;5095196;28;20167;-90
2023/12/20 05:29:28;;;;;;;8.53;7.57;;;11.00;67.20;;;;;;5094638;28;20182;-88
2023/12/20 05:31:54;;;;;;;8.23;7.53;;;11.00;67.30;;;;;;5088655;28;20214;-90
2023/12/20 05:34:20;;;;;;;8.53;7.63;;;11.10;67.30;;;;;;5089164;28;20266;-88
2023/12/20 05:36:46;;;;;;;8.67;7.77;;;11.00;66.90;;;;;;5094172;28;20246;-88
2023/12/20 05:39:11;;;;;;;8.57;7.77;;;11.00;66.80;;;;;;5092973;28;20257;-90
2023/12/20 05:41:37;;;;;;;8.63;7.77;;;10.90;66.70;;;;;;5093942;28;20170;-87
2023/12/20 05:44:03;;;;;;;8.30;7.50;;;10.90;66.70;;;;;;5094068;28;20175;-90
2023/12/20 05:46:28;;;;;;;9.63;7.33;;;10.80;66.70;;;;;;5094532;28;20192;-89
2023/12/20 05:48:54;;;;;;;8.53;7.60;;;10.90;67.20;;;;;;5094519;28;20221;-91
2023/12/20 05:51:19;;;;;;;8.53;7.70;;;11.00;67.20;;;;;;5094618;28;20190;-91
2023/12/20 05:53:45;;;;;;;9.83;7.30;;;10.90;67.30;;;;;;5094101;28;20179;-91
2023/12/20 05:56:11;;;;;;;8.33;7.20;;;11.00;67.40;;;;;;5094791;28;20580;-91
2023/12/20 05:58:38;;;;;;;7.77;7.07;;;10.90;67.30;;;;;;5095255;28;20187;-92
2023/12/20 06:01:04;;;;;;;8.33;7.53;;;11.00;67.30;;;;;;5085589;28;20184;-92
2023/12/20 06:03:30;;;;;;;7.97;7.17;;;11.00;67.10;;;;;;5087399;28;20203;-88
2023/12/20 06:05:56;;;;;;;8.23;7.47;;;11.00;66.90;;;;;;5088584;28;20652;-90
2023/12/20 06:08:21;;;;;;;8.10;7.40;;;11.00;67.20;;;;;;5084545;28;20226;-87
2023/12/20 06:10:47;;;;;;;7.73;6.93;;;11.00;67.20;;;;;;5098423;28;20219;-92
2023/12/20 06:13:13;;;;;;;8.57;7.40;;;11.00;67.10;;;;;;5097929;28;20190;-90
2023/12/20 06:15:39;;;;;;;8.23;7.43;;;11.00;66.90;;;;;;5095021;28;20344;-87
2023/12/20 06:18:05;;;;;;;8.00;7.20;;;11.10;67.30;;;;;;5081027;28;20261;-86
2023/12/20 06:20:32;;;;;;;8.83;7.77;;;11.00;67.20;;;;;;5097186;28;20183;-89
2023/12/20 06:22:57;;;;;;;8.63;7.83;;;11.10;67.50;;;;;;5094095;28;20175;-88
2023/12/20 06:25:23;;;;;;;9.53;8.63;;;11.10;67.30;;;;;;5069846;27;20922;-91
2023/12/20 06:27:49;;;;;;;9.27;8.47;;;11.10;67.00;;;;;;5084784;27;20184;-90
2023/12/20 06:30:15;;;;;;;8.77;7.97;;;11.10;66.80;;;;;;5096869;27;20215;-88
2023/12/20 06:32:42;;;;;;;8.97;8.10;;;11.10;66.90;;;;;;5085867;28;20176;-89
2023/12/20 06:35:08;;;;;;;8.90;8.10;;;11.20;67.40;;;;;;5071315;28;20176;-87
2023/12/20 06:37:34;;;;;;;9.20;8.30;;;11.20;67.20;;;;;;5085477;28;20223;-87
2023/12/20 06:40:00;;;;;;;9.10;8.17;;;11.20;67.10;;;;;;5067942;28;20660;-87
2023/12/20 06:42:25;;;;;;;9.30;8.30;;;11.20;67.20;;;;;;5067164;27;20190;-88
2023/12/20 06:44:51;;;;;;;9.00;8.20;;;11.20;67.10;;;;;;5083046;27;20741;-89
2023/12/20 06:47:16;;;;;;;9.90;9.00;;;11.20;67.00;;;;;;5091413;28;20180;-87
2023/12/20 06:49:42;;;;;;;9.77;8.87;;;11.30;67.00;;;;;;5073743;27;20189;-87
2023/12/20 06:52:07;;;;;;;8.87;8.07;;;11.30;67.00;;;;;;5081134;28;20211;-93
2023/12/20 06:54:34;;;;;;;9.27;8.43;;;11.30;66.90;;;;;;5080896;28;20182;-92
2023/12/20 06:57:00;;;;;;;9.20;8.40;;;11.10;67.00;;;;;;5078864;28;20677;-91
2023/12/20 06:59:26;;;;;;;9.67;8.63;;;11.20;67.10;;;;;;5079699;28;20188;-91
2023/12/20 07:01:51;;;;;;;9.93;8.93;;;11.20;67.00;;;;;;5079091;27;20642;-92
2023/12/20 07:04:21;;;;;;;10.87;9.87;;;11.20;66.90;;;;;;5092188;27;20266;-93
2023/12/20 07:06:48;;;;;;;10.33;9.43;;;11.20;66.90;;;;;;5087112;28;20191;-91
2023/12/20 07:09:14;;;;;;;10.67;9.70;;;11.20;66.60;;;;;;5089558;28;20239;-92
2023/12/20 07:11:40;;;;;;;10.47;9.50;;;11.10;66.40;;;;;;5088317;28;20285;-92
2023/12/20 07:14:05;;;;;;;10.30;9.33;;;11.10;66.60;;;;;;5091073;28;20184;-92
2023/12/20 07:16:31;;;;;;;9.80;8.90;;;11.10;66.60;;;;;;5094557;28;20208;-88
2023/12/20 07:18:57;;;;;;;9.63;8.83;;;11.10;66.70;;;;;;5094992;28;20179;-89
2023/12/20 07:21:23;;;;;;;9.03;8.23;;;11.00;66.70;;;;;;5079921;28;20315;-88
2023/12/20 07:23:48;;;;;;;9.97;9.00;;;11.00;67.00;;;;;;5115547;28;20168;-90
2023/12/20 07:26:15;;;;;;;9.23;8.40;;;10.90;66.70;;;;;;5092665;28;20645;-89
2023/12/20 07:28:40;;;;;;;9.67;8.77;;;11.00;67.30;;;;;;5094289;28;20688;-89
2023/12/20 07:31:06;;;;;;;9.80;8.80;;;10.90;67.00;;;;;;5093727;28;20179;-90
2023/12/20 07:33:32;;;;;;;10.20;9.10;;;11.00;66.90;;;;;;5092964;28;20188;-89
2023/12/20 07:35:59;;;;;;;9.33;8.33;;;11.00;67.10;;;;;;5077504;28;20173;-90
2023/12/20 07:38:24;;;;;;;9.57;8.67;;;10.90;67.00;;;;;;5093373;28;20574;-91
2023/12/20 07:40:50;;;;;;;8.93;8.13;;;10.90;67.00;;;;;;5088414;28;20283;-90
2023/12/20 07:43:16;;;;;;;9.43;8.50;;;11.00;67.20;;;;;;5096426;28;20210;-88
2023/12/20 07:45:42;;;;;;;9.33;8.30;;;11.00;66.90;;;;;;5096897;28;20190;-90
2023/12/20 07:48:08;;;;;;;8.67;7.87;;;10.90;66.80;;;;;;5094590;28;20234;-89
2023/12/20 07:50:34;;;;;;;8.87;8.07;;;11.10;67.20;;;;;;5096498;28;20621;-89
2023/12/20 07:53:00;;;;;;;8.10;7.30;;;11.00;67.10;;;;;;5094466;28;20271;-89
2023/12/20 07:55:26;;;;;;;8.33;7.63;;;10.90;67.00;;;;;;5096308;28;20175;-91
2023/12/20 07:57:52;;;;;;;7.90;7.13;;;10.90;67.10;;;;;;5095976;28;20661;-90
2023/12/20 08:00:18;;;;;;;7.93;7.13;;;11.00;67.30;;;;;;5075627;28;20165;-91
2023/12/20 08:02:43;;;;;;;8.87;7.60;;;10.90;67.00;;;;;;5100860;28;20179;-89
2023/12/20 08:05:09;;;;;;;8.67;7.77;;;10.90;67.00;;;;;;5098174;28;20179;-89
2023/12/20 08:07:35;;;;;;;7.90;7.10;;;10.90;67.10;;;;;;5109554;28;20231;-89
2023/12/20 08:10:00;;;;;;;7.53;6.83;;;10.90;67.00;;;;;;5091179;28;20179;-90
2023/12/20 08:12:29;;;;;;;8.47;7.67;;;10.90;67.00;;;;;;5094384;28;20221;-91
2023/12/20 08:14:58;;;;;;;7.80;7.10;;;10.90;67.10;;;;;;5094719;28;20784;-89
2023/12/20 08:17:23;;;;;;;8.10;7.40;;;11.00;67.20;;;;;;5094378;28;20688;-89
2023/12/20 08:19:49;;;;;;;8.60;7.80;;;11.00;67.10;;;;;;5095379;28;20274;-89
2023/12/20 08:22:15;;;;;;;7.70;7.00;;;11.10;66.80;;;;;;5088544;28;20274;-90
2023/12/20 08:24:40;;;;;;;7.90;7.20;;;11.00;67.00;;;;;;5096152;28;20167;-90
2023/12/20 08:27:07;;;;;;;7.80;7.10;;;10.90;67.00;;;;;;5091909;28;20176;-89
2023/12/20 08:29:35;;;;;;;8.13;7.43;;;10.90;66.90;;;;;;5095975;28;20182;-91
2023/12/20 08:32:01;;;;;;;7.87;7.17;;;10.90;67.00;;;;;;5093859;28;20197;-89
2023/12/20 08:34:27;;;;;;;8.40;7.40;;;10.90;67.00;;;;;;5088781;28;20183;-90
2023/12/20 08:36:53;;;;;;;7.57;6.83;;;10.80;67.00;;;;;;5080070;28;20223;-92
2023/12/20 08:39:19;;;;;;;8.07;7.27;;;10.90;67.30;;;;;;5092836;28;20667;-90
2023/12/20 08:41:44;;;;;;;7.93;7.13;;;10.90;67.30;;;;;;5080558;28;20519;-90
2023/12/20 08:44:10;;;;;;;8.27;7.37;;;11.00;67.20;;;;;;5095245;28;20187;-92
2023/12/20 08:46:36;;;;;;;7.83;7.03;;;10.90;67.00;;;;;;5092145;28;20210;-91
2023/12/20 08:49:02;;;;;;;7.83;7.13;;;10.90;67.10;;;;;;5080532;28;20179;-90
2023/12/20 08:51:28;;;;;;;7.80;7.00;;;11.00;67.50;;;;;;5093188;28;20180;-91
2023/12/20 08:53:54;;;;;;;7.93;7.13;;;11.10;67.40;;;;;;5093235;28;20175;-90
2023/12/20 08:56:20;;;;;;;7.80;6.77;;;11.10;67.10;;;;;;5093255;28;20195;-91
2023/12/20 08:58:46;;;;;;;8.00;7.30;;;11.00;66.90;;;;;;5093050;28;20676;-90
2023/12/20 09:01:12;;;;;;;7.97;7.10;;;11.10;67.10;;;;;;5093205;28;20573;-91
2023/12/20 09:03:38;;;;;;;8.60;6.33;;;11.10;67.10;;;;;;5091132;28;20987;-89
2023/12/20 09:06:05;;;;;;;7.07;6.23;;;11.00;67.20;;;;;;5094131;28;20178;-91
2023/12/20 09:08:30;;;;;;;7.37;6.67;;;11.10;67.20;;;;;;5093955;28;20266;-91
2023/12/20 09:10:57;;;;;;;7.13;6.43;;;11.10;67.10;;;;;;5093726;28;20220;-89
2023/12/20 09:13:31;;;;;;;6.67;6.07;;;11.00;67.00;;;;;;5093348;28;20198;-90
2023/12/20 09:15:57;;;;;;;6.97;6.37;;;11.10;67.30;;;;;;5093216;28;20236;-91
2023/12/20 09:18:23;;;;;;;7.73;6.90;;;11.20;67.40;;;;;;5098020;27;20183;-91
2023/12/20 09:20:48;;;;;;;7.43;6.73;;;11.20;67.10;;;;;;5109794;28;20175;-91
2023/12/20 09:23:14;;;;;;;7.23;6.53;;;11.20;66.70;;;;;;5094019;28;20171;-90
2023/12/20 09:25:40;;;;;;;9.30;7.20;;;11.10;66.80;;;;;;5092404;28;20187;-90
2023/12/20 09:28:06;;;;;;;7.93;7.13;;;11.10;66.80;;;;;;5083269;28;20179;-89
2023/12/20 09:30:31;;;;;;;8.80;7.17;;;11.10;66.80;;;;;;5094678;28;20180;-90
2023/12/20 09:32:57;;;;;;;8.23;7.30;;;11.20;67.00;;;;;;5094219;28;20167;-90
2023/12/20 09:35:23;;;;;;;8.73;7.80;;;11.20;66.90;;;;;;5081732;28;20191;-90
2023/12/20 09:37:49;;;;;;;7.60;6.73;;;11.10;67.00;;;;;;5103750;28;20199;-89
2023/12/20 09:40:20;;;;;;;7.00;6.37;;;11.10;66.90;;;;;;5091883;28;20183;-89
2023/12/20 09:42:58;;;;;;;7.27;6.43;;;11.20;67.10;;;;;;5093015;28;20680;-89
2023/12/20 09:45:24;;;;;;;7.30;6.20;;;11.10;67.00;;;;;;5094058;28;20577;-90
2023/12/20 09:47:52;;;;;;;6.57;5.97;;;11.20;67.10;;;;;;5095720;28;20184;-90
2023/12/20 09:50:20;;;;;;;6.27;5.77;;;11.10;66.50;;;;;;5095350;28;20179;-91
2023/12/20 09:52:50;;;;;;;5.73;5.23;;;11.10;66.80;;;;;;5095891;28;20207;-90
2023/12/20 09:55:18;;;;;;;6.57;5.97;;;11.10;66.90;;;;;;5095527;28;20589;-89
2023/12/20 09:57:44;;;;;;;6.50;5.80;;;11.00;66.80;;;;;;5095380;28;20200;-91
2023/12/20 10:00:11;;;;;;;6.63;6.03;;;11.00;66.90;;;;;;5095140;28;20175;-89
2023/12/20 10:02:42;;;;;;;6.67;6.07;;;11.00;67.10;;;;;;5095418;28;20172;-90
2023/12/20 10:05:09;;;;;;;7.50;6.80;;;11.10;67.00;;;;;;5094220;28;20207;-91
2023/12/20 10:07:37;;;;;;;7.50;6.10;;;11.00;66.90;;;;;;5091531;28;20270;-90
2023/12/20 10:10:04;;;;;;;6.83;5.93;;;11.00;67.00;;;;;;5090080;28;20218;-90
2023/12/20 10:12:30;;;;;;;6.43;5.83;;;11.00;67.10;;;;;;5089893;28;20219;-90
2023/12/20 10:14:57;;;;;;;6.93;5.87;;;11.00;67.00;;;;;;5092564;28;20632;-91
2023/12/20 10:17:24;;;;;;;7.07;6.17;;;10.90;66.80;;;;;;5078188;28;20219;-91
2023/12/20 10:19:49;;;;;;;6.47;5.87;;;11.00;67.00;;;;;;5087609;28;20691;-92
2023/12/20 10:22:15;;;;;;;6.43;5.83;;;11.00;67.00;;;;;;5094981;28;20176;-92
2023/12/20 10:24:41;;;;;;;6.50;5.90;;;11.00;66.90;;;;;;5094337;28;20195;-90
2023/12/20 10:27:08;;;;;;;5.93;5.43;;;10.90;66.70;;;;;;5075368;28;20183;-91
2023/12/20 10:29:37;;;;;;;5.50;5.00;;;10.90;67.00;;;;;;5093604;28;20269;-91
2023/12/20 10:32:26;;;;;;;6.17;5.43;;;10.90;67.20;;;;;;5110259;28;20194;-93
2023/12/20 10:34:53;;;;;;;5.90;5.40;;;10.90;67.30;;;;;;5100566;28;20183;-90
2023/12/20 10:37:19;;;;;;;5.43;4.93;;;11.00;67.40;;;;;;5094971;28;20223;-91
2023/12/20 10:39:49;;;;;;;6.77;6.07;;;11.00;67.50;;;;;;5095551;28;20167;-90
2023/12/20 10:42:16;;;;;;;5.87;5.37;;;11.00;67.40;;;;;;5096297;28;20183;-89
2023/12/20 10:44:42;;;;;;;6.50;5.60;;;11.00;67.20;;;;;;5108554;28;20175;-89
2023/12/20 10:47:11;;;;;;;6.30;5.70;;;11.00;67.20;;;;;;5100149;28;20167;-90
2023/12/20 10:49:39;;;;;;;6.83;5.77;;;11.00;67.10;;;;;;5096613;28;20168;-90
2023/12/20 10:52:06;;;;;;;5.70;5.20;;;10.90;67.00;;;;;;5082376;28;20179;-90
2023/12/20 10:54:32;;;;;;;6.53;5.93;;;10.90;67.20;;;;;;5114469;28;20176;-90
2023/12/20 10:56:59;;;;;;;6.17;5.57;;;11.00;67.40;;;;;;5080551;28;20290;-92
2023/12/20 10:59:29;;;;;;;6.27;5.67;;;11.00;67.40;;;;;;5083919;28;20188;-90
2023/12/20 11:01:57;;;;;;;5.83;5.33;;;11.10;67.40;;;;;;5084545;28;20206;-91
2023/12/20 11:04:31;;;;;;;6.27;5.67;;;11.10;67.90;;;;;;5083469;28;20175;-90
2023/12/20 11:07:26;;;;;;;6.37;5.50;;;11.10;67.40;;;;;;5096198;28;20188;-91
2023/12/20 11:10:21;;;;;;;6.57;5.90;;;11.10;67.10;;;;;;5077494;28;20191;-91
2023/12/20 11:12:57;;;;;;;6.67;6.07;;;11.10;67.30;;;;;;5095604;28;20195;-92
2023/12/20 11:15:24;;;;;;;6.73;6.03;;;11.10;67.40;;;;;;5095574;27;20258;-89
2023/12/20 11:17:57;;;;;;;7.37;6.67;;;11.10;67.50;;;;;;5087181;28;20204;-90
2023/12/20 11:20:24;;;;;;;8.13;6.60;;;11.20;67.50;;;;;;5097716;28;20213;-91
2023/12/20 11:22:54;;;;;;;7.13;6.33;;;11.20;67.30;;;;;;5096523;28;20172;-89
2023/12/20 11:25:20;;;;;;;6.73;6.13;;;11.20;67.20;;;;;;5095259;28;20637;-89
2023/12/20 11:28:10;;;;;;;7.50;6.80;;;11.20;67.00;;;;;;5079934;28;20657;-90
2023/12/20 11:30:56;;;;;;;6.23;5.73;;;11.10;66.80;;;;;;5096477;27;20279;-91
2023/12/20 11:33:26;;;;;;;6.90;6.20;;;11.10;66.90;;;;;;5097558;28;20175;-91
2023/12/20 11:35:55;;;;;;;7.87;6.93;;;11.10;67.20;;;;;;5086394;28;20183;-91
2023/12/20 11:38:21;;;;;;;8.63;6.93;;;11.10;67.20;;;;;;5097069;28;20192;-92
2023/12/20 11:40:50;;;;;;;7.43;6.73;;;11.10;67.20;;;;;;5095102;28;20273;-91
2023/12/20 11:43:37;;;;;;;8.40;6.73;;;11.00;67.20;;;;;;5097946;28;20176;-91
2023/12/20 11:46:08;;;;;;;7.17;6.50;;;11.10;67.10;;;;;;5095756;28;20176;-90
2023/12/20 11:48:40;;;;;;;8.37;7.37;;;11.00;67.20;;;;;;5097615;28;20175;-90
2023/12/20 11:51:15;;;;;;;8.43;7.50;;;11.00;67.30;;;;;;5097482;28;20263;-90
2023/12/20 11:53:44;;;;;;;8.53;7.73;;;11.10;67.90;;;;;;5078883;28;20267;-91
2023/12/20 11:56:10;;;;;;;7.67;6.87;;;11.10;67.40;;;;;;5076481;28;20172;-91
2023/12/20 11:58:36;;;;;;;7.27;6.57;;;11.10;67.30;;;;;;5076854;28;20180;-90
2023/12/20 12:01:02;;;;;;;6.80;6.10;;;11.10;67.00;;;;;;5082349;28;20240;-92
2023/12/20 12:03:28;;;;;;;6.67;5.93;;;11.00;66.80;;;;;;5097150;28;20182;-91
2023/12/20 12:05:53;;;;;;;6.40;5.73;;;11.00;66.80;;;;;;5096261;28;20172;-92
2023/12/20 12:08:19;;;;;;;7.17;5.93;;;10.90;66.80;;;;;;5096034;28;20186;-91
2023/12/20 12:10:45;;;;;;;6.40;5.80;;;10.90;66.90;;;;;;5096789;28;20227;-91
2023/12/20 12:13:11;;;;;;;7.50;6.30;;;10.90;67.00;;;;;;5102407;27;20217;-91
2023/12/20 12:15:37;;;;;;;7.10;6.07;;;11.00;67.10;;;;;;5117565;27;20207;-91
2023/12/20 12:18:03;;;;;;;6.07;5.47;;;11.00;66.90;;;;;;5099332;28;20284;-91
2023/12/20 12:20:29;;;;;;;7.30;5.80;;;10.90;66.60;;;;;;5095141;28;20180;-91
2023/12/20 12:23:06;;;;;;;7.00;6.40;;;10.90;66.40;;;;;;5084853;28;20638;-91
2023/12/20 12:25:34;;;;;;;8.17;6.67;;;10.80;66.40;;;;;;5078869;28;20179;-92
2023/12/20 12:28:00;;;;;;;6.63;5.87;;;10.80;66.40;;;;;;5076313;28;20181;-91
2023/12/20 12:30:26;;;;;;;8.77;6.73;;;10.70;66.60;;;;;;5093601;28;20171;-93
2023/12/20 12:32:52;;;;;;;7.20;6.23;;;10.70;66.80;;;;;;5086619;28;20223;-89
2023/12/20 12:35:19;;;;;;;7.43;6.73;;;10.70;66.80;;;;;;5090638;28;20186;-92
2023/12/20 12:37:45;;;;;;;8.93;7.07;;;10.70;66.90;;;;;;5096468;28;20209;-91
2023/12/20 12:40:13;;;;;;;8.57;6.63;;;10.60;66.70;;;;;;5096406;28;20264;-91